This is the latest recevied weather packets stored in our database for station/object K4ZZR. If no packets are shown the sender has not sent any weather packets the latest 10 day(s).
| Time | Temp. | Humidity | Pressure | Rain* | Wind** | Luminosity | Snow |
|---|---|---|---|---|---|---|---|
| 1777488069 | 27.78° C | 70% | 1014.6 hPa | 0 mm | - | 873 W/m² | - |
| 1777487766 | 27.78° C | 71% | 1014.4 hPa | 0 mm | - | 889 W/m² | - |
| 1777487464 | 27.22° C | 71% | 1014.7 hPa | 0 mm | - | 667 W/m² | - |
| 1777487161 | 27.78° C | 68% | 1014.9 hPa | 0 mm | - | 705 W/m² | - |
| 1777486856 | 27.78° C | 69% | 1015.2 hPa | 0 mm | - | 681 W/m² | - |
| 1777486554 | 28.33° C | 69% | 1015.3 hPa | 0 mm | - | 900 W/m² | - |
| 1777486251 | 27.22° C | 69% | 1015.2 hPa | 0 mm | - | 787 W/m² | - |
| 1777485949 | 27.78° C | 70% | 1015.4 hPa | 0 mm | - | 909 W/m² | - |
| 1777485644 | 27.78° C | 72% | 1015.4 hPa | 0 mm | - | 925 W/m² | - |
| 1777485339 | 28.33° C | 70% | 1015.4 hPa | 0 mm | - | 934 W/m² | - |
| 1777485036 | 27.78° C | 70% | 1015.6 hPa | 0 mm | - | 941 W/m² | - |
| 1777484734 | 27.78° C | 70% | 1015.6 hPa | 0 mm | - | 942 W/m² | - |
| 1777484430 | 27.78° C | 72% | 1015.5 hPa | 0 mm | - | 895 W/m² | - |
| 1777484127 | 27.78° C | 70% | 1015.7 hPa | 0 mm | - | 955 W/m² | - |
| 1777483823 | 27.78° C | 70% | 1015.6 hPa | 0 mm | - | 958 W/m² | - |
| 1777483520 | 28.33° C | 69% | 1015.8 hPa | 0 mm | - | 377 W/m² | - |
| 1777483214 | 27.78° C | 71% | 1015.9 hPa | 0 mm | - | 959 W/m² | - |
| 1777482911 | 27.78° C | 72% | 1016 hPa | 0 mm | - | 955 W/m² | - |
| 1777482607 | 28.33° C | 70% | 1015.8 hPa | 0 mm | - | 957 W/m² | - |
| 1777482304 | 26.67° C | 73% | 1016.2 hPa | 0 mm | - | 959 W/m² | - |
| 1777482001 | 26.67° C | 74% | 1016.2 hPa | 0 mm | - | 967 W/m² | - |
| 1777481699 | 27.22° C | 72% | 1016.4 hPa | 0 mm | - | 975 W/m² | - |
| 1777481396 | 27.78° C | 72% | 1016.5 hPa | 0 mm | - | 978 W/m² | - |
| 1777481092 | 27.22° C | 74% | 1016.7 hPa | 0 mm | - | 985 W/m² | - |
| 1777480789 | 27.22° C | 74% | 1016.6 hPa | 0 mm | - | 982 W/m² | - |
* Rain latest hour (hover to see other rain measurements)
** Current wind speed in m/s (hover to see current wind gust speed)